Terminal Aerodrome Forecast
Issued by NWS Cleveland, OH

Home | Current Version | Previous Version | Graphics & Text | Print | Product List | Glossary On
Versions: 1 2 3 4 5 6 7 8 9 10 11 12 13 14 15 16 17
508
FTUS41 KCLE 290823 AAA
TAFERI
TAF AMD
KERI 290823Z 2908/3006 VRB04KT P6SM SCT018 BKN070
      TEMPO 2908/2912 BKN018
     FM291200 05007KT P6SM SCT045 BKN200
     FM291600 03012KT P6SM SCT045 BKN250=

USA.gov is the U.S. government's official web portal to all federal, state and local government web resources and services.